sensor_id;sensor_type;location;lat;lon;timestamp;temperature;humidity
22813;DHT22;11573;51.334;3.244;2023-09-19T00:00:38;16.40;99.90
22813;DHT22;11573;51.334;3.244;2023-09-19T00:03:08;16.30;99.90
22813;DHT22;11573;51.334;3.244;2023-09-19T00:05:37;16.30;99.90
22813;DHT22;11573;51.334;3.244;2023-09-19T00:08:11;16.30;99.90
22813;DHT22;11573;51.334;3.244;2023-09-19T00:10:40;16.20;99.90
22813;DHT22;11573;51.334;3.244;2023-09-19T00:13:10;16.20;99.90
22813;DHT22;11573;51.334;3.244;2023-09-19T00:15:46;16.20;99.90
22813;DHT22;11573;51.334;3.244;2023-09-19T00:18:18;16.30;99.90
22813;DHT22;11573;51.334;3.244;2023-09-19T00:20:49;16.30;99.90
22813;DHT22;11573;51.334;3.244;2023-09-19T00:23:18;16.40;99.90
22813;DHT22;11573;51.334;3.244;2023-09-19T00:25:46;16.40;99.90
22813;DHT22;11573;51.334;3.244;2023-09-19T00:28:13;16.50;99.90
22813;DHT22;11573;51.334;3.244;2023-09-19T00:30:43;16.50;99.90
22813;DHT22;11573;51.334;3.244;2023-09-19T00:33:11;16.50;99.90
22813;DHT22;11573;51.334;3.244;2023-09-19T00:35:53;16.50;99.90
22813;DHT22;11573;51.334;3.244;2023-09-19T00:38:22;16.50;99.90
22813;DHT22;11573;51.334;3.244;2023-09-19T00:40:50;16.60;99.90
22813;DHT22;11573;51.334;3.244;2023-09-19T00:43:21;16.60;99.90
22813;DHT22;11573;51.334;3.244;2023-09-19T00:45:54;16.40;99.90
22813;DHT22;11573;51.334;3.244;2023-09-19T00:48:22;16.20;99.90
22813;DHT22;11573;51.334;3.244;2023-09-19T00:50:52;16.10;99.90
22813;DHT22;11573;51.334;3.244;2023-09-19T00:53:22;16.00;99.90
22813;DHT22;11573;51.334;3.244;2023-09-19T00:55:51;15.90;99.90
22813;DHT22;11573;51.334;3.244;2023-09-19T00:58:19;15.80;99.90
22813;DHT22;11573;51.334;3.244;2023-09-19T01:00:48;15.70;99.90
22813;DHT22;11573;51.334;3.244;2023-09-19T01:03:16;15.70;99.90
22813;DHT22;11573;51.334;3.244;2023-09-19T01:05:45;15.70;99.90
22813;DHT22;11573;51.334;3.244;2023-09-19T01:08:12;15.70;99.90
22813;DHT22;11573;51.334;3.244;2023-09-19T01:10:46;15.70;99.90
22813;DHT22;11573;51.334;3.244;2023-09-19T01:13:22;15.70;99.90
22813;DHT22;11573;51.334;3.244;2023-09-19T01:16:03;15.70;99.90
22813;DHT22;11573;51.334;3.244;2023-09-19T01:18:47;15.60;99.90
22813;DHT22;11573;51.334;3.244;2023-09-19T01:27:32;15.30;99.90
22813;DHT22;11573;51.334;3.244;2023-09-19T01:30:16;15.30;99.90
22813;DHT22;11573;51.334;3.244;2023-09-19T01:32:44;15.20;99.90
22813;DHT22;11573;51.334;3.244;2023-09-19T01:35:13;15.20;99.90
22813;DHT22;11573;51.334;3.244;2023-09-19T01:37:40;15.20;99.90
22813;DHT22;11573;51.334;3.244;2023-09-19T01:40:17;15.10;99.90
22813;DHT22;11573;51.334;3.244;2023-09-19T01:42:50;15.10;99.90
22813;DHT22;11573;51.334;3.244;2023-09-19T01:51:07;14.90;99.90
22813;DHT22;11573;51.334;3.244;2023-09-19T01:53:53;14.80;99.90
22813;DHT22;11573;51.334;3.244;2023-09-19T01:56:42;14.80;99.90
22813;DHT22;11573;51.334;3.244;2023-09-19T01:59:17;14.80;99.90
22813;DHT22;11573;51.334;3.244;2023-09-19T02:01:48;14.80;99.90
22813;DHT22;11573;51.334;3.244;2023-09-19T02:04:16;14.80;99.90
22813;DHT22;11573;51.334;3.244;2023-09-19T02:06:43;14.70;99.90
22813;DHT22;11573;51.334;3.244;2023-09-19T02:09:14;14.70;99.90
22813;DHT22;11573;51.334;3.244;2023-09-19T02:11:42;14.80;99.90
22813;DHT22;11573;51.334;3.244;2023-09-19T02:14:09;14.70;99.90
22813;DHT22;11573;51.334;3.244;2023-09-19T02:16:36;14.80;99.90
22813;DHT22;11573;51.334;3.244;2023-09-19T02:19:04;14.80;99.90
22813;DHT22;11573;51.334;3.244;2023-09-19T02:21:32;14.80;99.90
22813;DHT22;11573;51.334;3.244;2023-09-19T02:24:00;14.80;99.90
22813;DHT22;11573;51.334;3.244;2023-09-19T02:26:27;14.80;99.90
22813;DHT22;11573;51.334;3.244;2023-09-19T02:28:54;14.90;99.90
22813;DHT22;11573;51.334;3.244;2023-09-19T02:31:22;14.90;99.90
22813;DHT22;11573;51.334;3.244;2023-09-19T02:33:49;14.90;99.90
22813;DHT22;11573;51.334;3.244;2023-09-19T02:36:16;14.80;99.90
22813;DHT22;11573;51.334;3.244;2023-09-19T02:38:44;14.80;99.90
22813;DHT22;11573;51.334;3.244;2023-09-19T02:41:11;14.70;99.90
22813;DHT22;11573;51.334;3.244;2023-09-19T02:43:38;14.70;99.90
22813;DHT22;11573;51.334;3.244;2023-09-19T02:46:06;14.70;99.90
22813;DHT22;11573;51.334;3.244;2023-09-19T02:48:33;14.60;99.90
22813;DHT22;11573;51.334;3.244;2023-09-19T02:51:02;14.60;99.90
22813;DHT22;11573;51.334;3.244;2023-09-19T02:53:30;14.60;99.90
22813;DHT22;11573;51.334;3.244;2023-09-19T02:55:58;14.60;99.90
22813;DHT22;11573;51.334;3.244;2023-09-19T02:58:26;14.60;99.90
22813;DHT22;11573;51.334;3.244;2023-09-19T03:00:54;14.60;99.90
22813;DHT22;11573;51.334;3.244;2023-09-19T03:03:23;14.60;99.90
22813;DHT22;11573;51.334;3.244;2023-09-19T03:05:50;14.60;99.90
22813;DHT22;11573;51.334;3.244;2023-09-19T03:08:21;14.60;99.90
22813;DHT22;11573;51.334;3.244;2023-09-19T03:10:48;14.60;99.90
22813;DHT22;11573;51.334;3.244;2023-09-19T03:13:16;14.60;99.90
22813;DHT22;11573;51.334;3.244;2023-09-19T03:15:43;14.60;99.90
22813;DHT22;11573;51.334;3.244;2023-09-19T03:18:14;14.60;99.90
22813;DHT22;11573;51.334;3.244;2023-09-19T03:20:42;14.60;99.90
22813;DHT22;11573;51.334;3.244;2023-09-19T03:23:09;14.60;99.90
22813;DHT22;11573;51.334;3.244;2023-09-19T03:25:36;14.50;99.90
22813;DHT22;11573;51.334;3.244;2023-09-19T03:28:04;14.50;99.90
22813;DHT22;11573;51.334;3.244;2023-09-19T03:30:35;14.50;99.90
22813;DHT22;11573;51.334;3.244;2023-09-19T03:33:04;14.50;99.90
22813;DHT22;11573;51.334;3.244;2023-09-19T03:35:34;14.50;99.90
22813;DHT22;11573;51.334;3.244;2023-09-19T03:38:03;14.50;99.90
22813;DHT22;11573;51.334;3.244;2023-09-19T03:40:30;14.60;99.90
22813;DHT22;11573;51.334;3.244;2023-09-19T03:43:00;14.60;99.90
22813;DHT22;11573;51.334;3.244;2023-09-19T03:45:27;14.60;99.90
22813;DHT22;11573;51.334;3.244;2023-09-19T03:47:54;14.60;99.90
22813;DHT22;11573;51.334;3.244;2023-09-19T03:50:23;14.60;99.90
22813;DHT22;11573;51.334;3.244;2023-09-19T03:52:56;14.50;99.90
22813;DHT22;11573;51.334;3.244;2023-09-19T03:55:23;14.50;99.90
22813;DHT22;11573;51.334;3.244;2023-09-19T03:57:50;14.50;99.90
22813;DHT22;11573;51.334;3.244;2023-09-19T04:00:18;14.60;99.90
22813;DHT22;11573;51.334;3.244;2023-09-19T04:02:48;14.60;99.90
22813;DHT22;11573;51.334;3.244;2023-09-19T04:05:15;14.60;99.90
22813;DHT22;11573;51.334;3.244;2023-09-19T04:07:43;14.50;99.90
22813;DHT22;11573;51.334;3.244;2023-09-19T04:10:10;14.50;99.90
22813;DHT22;11573;51.334;3.244;2023-09-19T04:12:51;14.50;99.90
22813;DHT22;11573;51.334;3.244;2023-09-19T04:15:19;14.40;99.90
22813;DHT22;11573;51.334;3.244;2023-09-19T04:17:46;14.40;99.90
22813;DHT22;11573;51.334;3.244;2023-09-19T04:20:13;14.40;99.90
22813;DHT22;11573;51.334;3.244;2023-09-19T04:22:40;14.30;99.90
22813;DHT22;11573;51.334;3.244;2023-09-19T04:25:08;14.20;99.90
22813;DHT22;11573;51.334;3.244;2023-09-19T04:27:34;14.20;99.90
22813;DHT22;11573;51.334;3.244;2023-09-19T04:30:01;14.20;99.90
22813;DHT22;11573;51.334;3.244;2023-09-19T04:32:30;14.30;99.90
22813;DHT22;11573;51.334;3.244;2023-09-19T04:34:59;14.30;99.90
22813;DHT22;11573;51.334;3.244;2023-09-19T04:37:30;14.30;99.90
22813;DHT22;11573;51.334;3.244;2023-09-19T04:39:57;14.30;99.90
22813;DHT22;11573;51.334;3.244;2023-09-19T04:42:24;14.30;99.90
22813;DHT22;11573;51.334;3.244;2023-09-19T04:44:52;14.30;99.90
22813;DHT22;11573;51.334;3.244;2023-09-19T04:47:20;14.30;99.90
22813;DHT22;11573;51.334;3.244;2023-09-19T04:49:49;14.30;99.90
22813;DHT22;11573;51.334;3.244;2023-09-19T04:52:16;14.30;99.90
22813;DHT22;11573;51.334;3.244;2023-09-19T04:54:43;14.30;99.90
22813;DHT22;11573;51.334;3.244;2023-09-19T04:57:10;14.30;99.90
22813;DHT22;11573;51.334;3.244;2023-09-19T04:59:37;14.30;99.90
22813;DHT22;11573;51.334;3.244;2023-09-19T05:02:05;14.30;99.90
22813;DHT22;11573;51.334;3.244;2023-09-19T05:04:32;14.30;99.90
22813;DHT22;11573;51.334;3.244;2023-09-19T05:06:59;14.30;99.90
22813;DHT22;11573;51.334;3.244;2023-09-19T05:09:27;14.30;99.90
22813;DHT22;11573;51.334;3.244;2023-09-19T05:11:54;14.30;99.90
22813;DHT22;11573;51.334;3.244;2023-09-19T05:14:23;14.20;99.90
22813;DHT22;11573;51.334;3.244;2023-09-19T05:16:50;14.20;99.90
22813;DHT22;11573;51.334;3.244;2023-09-19T05:19:17;14.20;99.90
22813;DHT22;11573;51.334;3.244;2023-09-19T05:21:44;14.20;99.90
22813;DHT22;11573;51.334;3.244;2023-09-19T05:24:11;14.20;99.90
22813;DHT22;11573;51.334;3.244;2023-09-19T05:26:39;14.20;99.90
22813;DHT22;11573;51.334;3.244;2023-09-19T05:29:06;14.20;99.90
22813;DHT22;11573;51.334;3.244;2023-09-19T05:31:35;14.20;99.90
22813;DHT22;11573;51.334;3.244;2023-09-19T05:34:07;14.20;99.90
22813;DHT22;11573;51.334;3.244;2023-09-19T05:36:34;14.20;99.90
22813;DHT22;11573;51.334;3.244;2023-09-19T05:39:01;14.20;99.90
22813;DHT22;11573;51.334;3.244;2023-09-19T05:41:28;14.10;99.90
22813;DHT22;11573;51.334;3.244;2023-09-19T05:43:55;14.10;99.90
22813;DHT22;11573;51.334;3.244;2023-09-19T05:46:22;14.20;99.90
22813;DHT22;11573;51.334;3.244;2023-09-19T05:48:49;14.10;99.90
22813;DHT22;11573;51.334;3.244;2023-09-19T05:51:16;14.20;99.90
22813;DHT22;11573;51.334;3.244;2023-09-19T05:53:44;14.20;99.90
22813;DHT22;11573;51.334;3.244;2023-09-19T05:56:15;14.20;99.90
22813;DHT22;11573;51.334;3.244;2023-09-19T05:58:42;14.20;99.90
22813;DHT22;11573;51.334;3.244;2023-09-19T06:01:11;14.20;99.90
22813;DHT22;11573;51.334;3.244;2023-09-19T06:03:38;14.20;99.90
22813;DHT22;11573;51.334;3.244;2023-09-19T06:06:05;14.20;99.90
22813;DHT22;11573;51.334;3.244;2023-09-19T06:08:33;14.20;99.90
22813;DHT22;11573;51.334;3.244;2023-09-19T06:11:00;14.20;99.90
22813;DHT22;11573;51.334;3.244;2023-09-19T06:13:30;14.30;99.90
22813;DHT22;11573;51.334;3.244;2023-09-19T06:16:00;14.40;99.90
22813;DHT22;11573;51.334;3.244;2023-09-19T06:18:29;14.30;99.90
22813;DHT22;11573;51.334;3.244;2023-09-19T06:21:00;14.40;99.90
22813;DHT22;11573;51.334;3.244;2023-09-19T06:23:27;14.40;99.90
22813;DHT22;11573;51.334;3.244;2023-09-19T06:25:56;14.50;99.90
22813;DHT22;11573;51.334;3.244;2023-09-19T06:28:23;14.50;99.90
22813;DHT22;11573;51.334;3.244;2023-09-19T06:30:51;14.60;99.90
22813;DHT22;11573;51.334;3.244;2023-09-19T06:33:18;14.70;99.90
22813;DHT22;11573;51.334;3.244;2023-09-19T06:35:47;14.70;99.90
22813;DHT22;11573;51.334;3.244;2023-09-19T06:38:14;14.80;99.90
22813;DHT22;11573;51.334;3.244;2023-09-19T06:40:42;14.80;99.90
22813;DHT22;11573;51.334;3.244;2023-09-19T06:43:12;15.00;99.90
22813;DHT22;11573;51.334;3.244;2023-09-19T06:45:40;15.00;99.90
22813;DHT22;11573;51.334;3.244;2023-09-19T06:48:07;15.10;99.90
22813;DHT22;11573;51.334;3.244;2023-09-19T06:50:36;15.10;99.90
22813;DHT22;11573;51.334;3.244;2023-09-19T06:53:05;15.20;99.90
22813;DHT22;11573;51.334;3.244;2023-09-19T06:55:32;15.20;99.90
22813;DHT22;11573;51.334;3.244;2023-09-19T06:57:59;15.40;99.90
22813;DHT22;11573;51.334;3.244;2023-09-19T07:00:27;15.50;99.90
22813;DHT22;11573;51.334;3.244;2023-09-19T07:03:02;15.50;99.90
22813;DHT22;11573;51.334;3.244;2023-09-19T07:05:31;15.50;99.90
22813;DHT22;11573;51.334;3.244;2023-09-19T07:07:59;15.50;99.90
22813;DHT22;11573;51.334;3.244;2023-09-19T07:10:27;15.50;99.90
22813;DHT22;11573;51.334;3.244;2023-09-19T07:13:03;15.50;99.90
22813;DHT22;11573;51.334;3.244;2023-09-19T07:15:32;15.50;99.90
22813;DHT22;11573;51.334;3.244;2023-09-19T07:18:06;15.60;99.90
22813;DHT22;11573;51.334;3.244;2023-09-19T07:20:33;15.60;99.90
22813;DHT22;11573;51.334;3.244;2023-09-19T07:23:01;15.70;99.90
22813;DHT22;11573;51.334;3.244;2023-09-19T07:25:29;15.70;99.90
22813;DHT22;11573;51.334;3.244;2023-09-19T07:28:00;15.80;99.90
22813;DHT22;11573;51.334;3.244;2023-09-19T07:30:28;15.80;99.90
22813;DHT22;11573;51.334;3.244;2023-09-19T07:32:56;15.90;99.90
22813;DHT22;11573;51.334;3.244;2023-09-19T07:35:23;16.00;99.90
22813;DHT22;11573;51.334;3.244;2023-09-19T07:37:50;16.20;99.90
22813;DHT22;11573;51.334;3.244;2023-09-19T07:40:19;16.30;99.90
22813;DHT22;11573;51.334;3.244;2023-09-19T07:42:47;16.50;99.90
22813;DHT22;11573;51.334;3.244;2023-09-19T07:45:14;16.50;99.90
22813;DHT22;11573;51.334;3.244;2023-09-19T07:47:45;16.50;99.90
22813;DHT22;11573;51.334;3.244;2023-09-19T07:50:13;16.60;99.90
22813;DHT22;11573;51.334;3.244;2023-09-19T07:52:42;16.70;99.90
22813;DHT22;11573;51.334;3.244;2023-09-19T07:55:12;16.90;99.90
22813;DHT22;11573;51.334;3.244;2023-09-19T07:57:44;16.90;99.90
22813;DHT22;11573;51.334;3.244;2023-09-19T08:00:11;16.90;99.90
22813;DHT22;11573;51.334;3.244;2023-09-19T08:02:39;16.70;99.90
22813;DHT22;11573;51.334;3.244;2023-09-19T08:05:08;16.60;99.90
22813;DHT22;11573;51.334;3.244;2023-09-19T08:07:39;16.50;99.90
22813;DHT22;11573;51.334;3.244;2023-09-19T08:10:07;16.50;99.90
22813;DHT22;11573;51.334;3.244;2023-09-19T08:12:34;16.40;99.90
22813;DHT22;11573;51.334;3.244;2023-09-19T08:15:06;16.50;99.90
22813;DHT22;11573;51.334;3.244;2023-09-19T08:17:35;16.50;99.90
22813;DHT22;11573;51.334;3.244;2023-09-19T08:20:02;16.60;99.90
22813;DHT22;11573;51.334;3.244;2023-09-19T08:22:32;16.60;99.90
22813;DHT22;11573;51.334;3.244;2023-09-19T08:24:59;16.80;99.90
22813;DHT22;11573;51.334;3.244;2023-09-19T08:27:26;16.90;99.90
22813;DHT22;11573;51.334;3.244;2023-09-19T08:29:56;17.20;99.90
22813;DHT22;11573;51.334;3.244;2023-09-19T08:32:23;17.30;99.90
22813;DHT22;11573;51.334;3.244;2023-09-19T08:34:53;17.40;99.90
22813;DHT22;11573;51.334;3.244;2023-09-19T08:37:20;17.40;99.90
22813;DHT22;11573;51.334;3.244;2023-09-19T08:39:47;17.30;99.90
22813;DHT22;11573;51.334;3.244;2023-09-19T08:42:13;17.30;99.90
22813;DHT22;11573;51.334;3.244;2023-09-19T08:44:42;17.20;99.90
22813;DHT22;11573;51.334;3.244;2023-09-19T08:47:11;17.40;99.90
22813;DHT22;11573;51.334;3.244;2023-09-19T08:49:43;17.40;99.90
22813;DHT22;11573;51.334;3.244;2023-09-19T08:52:25;17.30;99.90
22813;DHT22;11573;51.334;3.244;2023-09-19T08:54:59;17.40;99.90
22813;DHT22;11573;51.334;3.244;2023-09-19T08:57:29;17.30;99.90
22813;DHT22;11573;51.334;3.244;2023-09-19T09:00:02;17.20;99.90
22813;DHT22;11573;51.334;3.244;2023-09-19T09:02:33;17.10;99.90
22813;DHT22;11573;51.334;3.244;2023-09-19T09:05:01;17.10;99.90
22813;DHT22;11573;51.334;3.244;2023-09-19T09:07:32;17.20;99.90
22813;DHT22;11573;51.334;3.244;2023-09-19T09:10:02;17.30;99.90
22813;DHT22;11573;51.334;3.244;2023-09-19T09:12:30;17.50;99.90
22813;DHT22;11573;51.334;3.244;2023-09-19T09:14:57;17.70;99.90
22813;DHT22;11573;51.334;3.244;2023-09-19T09:17:24;17.80;99.90
22813;DHT22;11573;51.334;3.244;2023-09-19T09:19:54;18.10;99.90
22813;DHT22;11573;51.334;3.244;2023-09-19T09:22:21;18.50;99.90
22813;DHT22;11573;51.334;3.244;2023-09-19T09:24:58;18.70;99.90
22813;DHT22;11573;51.334;3.244;2023-09-19T09:27:25;18.70;99.90
22813;DHT22;11573;51.334;3.244;2023-09-19T09:29:53;18.80;99.90
22813;DHT22;11573;51.334;3.244;2023-09-19T09:37:19;18.90;99.90
22813;DHT22;11573;51.334;3.244;2023-09-19T09:39:54;18.90;99.90
22813;DHT22;11573;51.334;3.244;2023-09-19T09:42:36;19.10;99.90
22813;DHT22;11573;51.334;3.244;2023-09-19T09:45:19;18.70;99.90
22813;DHT22;11573;51.334;3.244;2023-09-19T09:48:04;18.80;99.90
22813;DHT22;11573;51.334;3.244;2023-09-19T09:50:48;18.70;99.90
22813;DHT22;11573;51.334;3.244;2023-09-19T09:53:29;18.70;99.90
22813;DHT22;11573;51.334;3.244;2023-09-19T10:01:00;19.00;99.90
22813;DHT22;11573;51.334;3.244;2023-09-19T10:03:34;19.20;99.90
22813;DHT22;11573;51.334;3.244;2023-09-19T10:06:06;19.20;99.90
22813;DHT22;11573;51.334;3.244;2023-09-19T10:09:08;19.40;99.90
22813;DHT22;11573;51.334;3.244;2023-09-19T10:12:00;19.60;99.90
22813;DHT22;11573;51.334;3.244;2023-09-19T10:14:35;19.20;99.90
22813;DHT22;11573;51.334;3.244;2023-09-19T10:17:05;18.80;99.90
22813;DHT22;11573;51.334;3.244;2023-09-19T10:19:46;18.80;99.90
22813;DHT22;11573;51.334;3.244;2023-09-19T10:22:19;18.80;99.90
22813;DHT22;11573;51.334;3.244;2023-09-19T10:24:49;19.10;99.90
22813;DHT22;11573;51.334;3.244;2023-09-19T10:27:23;19.50;99.90
22813;DHT22;11573;51.334;3.244;2023-09-19T10:29:54;19.40;99.90
22813;DHT22;11573;51.334;3.244;2023-09-19T10:32:22;19.50;99.90
22813;DHT22;11573;51.334;3.244;2023-09-19T10:34:51;19.40;99.90
22813;DHT22;11573;51.334;3.244;2023-09-19T10:37:24;19.60;99.90
22813;DHT22;11573;51.334;3.244;2023-09-19T10:39:54;19.70;99.90
22813;DHT22;11573;51.334;3.244;2023-09-19T10:42:23;19.50;99.90
22813;DHT22;11573;51.334;3.244;2023-09-19T10:44:57;19.50;99.90
22813;DHT22;11573;51.334;3.244;2023-09-19T10:47:27;19.40;99.90
22813;DHT22;11573;51.334;3.244;2023-09-19T10:49:54;19.10;99.90
22813;DHT22;11573;51.334;3.244;2023-09-19T10:52:25;18.60;99.90
22813;DHT22;11573;51.334;3.244;2023-09-19T10:54:55;18.50;99.90
22813;DHT22;11573;51.334;3.244;2023-09-19T10:57:24;18.70;99.90
22813;DHT22;11573;51.334;3.244;2023-09-19T11:00:08;18.80;99.90
22813;DHT22;11573;51.334;3.244;2023-09-19T11:05:40;18.70;99.90
22813;DHT22;11573;51.334;3.244;2023-09-19T11:08:08;18.60;99.90
22813;DHT22;11573;51.334;3.244;2023-09-19T11:10:50;18.30;99.90
22813;DHT22;11573;51.334;3.244;2023-09-19T11:13:25;18.10;99.90
22813;DHT22;11573;51.334;3.244;2023-09-19T11:26:41;18.00;99.90
22813;DHT22;11573;51.334;3.244;2023-09-19T11:29:31;18.20;99.90
22813;DHT22;11573;51.334;3.244;2023-09-19T11:31:58;18.40;99.90
22813;DHT22;11573;51.334;3.244;2023-09-19T11:34:40;18.50;99.90
22813;DHT22;11573;51.334;3.244;2023-09-19T11:40:07;18.70;99.90
22813;DHT22;11573;51.334;3.244;2023-09-19T11:42:47;18.90;99.90
22813;DHT22;11573;51.334;3.244;2023-09-19T11:48:18;19.70;99.90
22813;DHT22;11573;51.334;3.244;2023-09-19T11:50:46;20.00;99.90
22813;DHT22;11573;51.334;3.244;2023-09-19T11:53:14;20.50;99.90
22813;DHT22;11573;51.334;3.244;2023-09-19T11:55:43;20.70;99.90
22813;DHT22;11573;51.334;3.244;2023-09-19T11:58:12;20.60;99.90
22813;DHT22;11573;51.334;3.244;2023-09-19T12:00:42;20.30;99.90
22813;DHT22;11573;51.334;3.244;2023-09-19T12:03:12;20.10;99.90
22813;DHT22;11573;51.334;3.244;2023-09-19T12:05:41;20.10;99.90
22813;DHT22;11573;51.334;3.244;2023-09-19T12:08:08;20.10;99.90
22813;DHT22;11573;51.334;3.244;2023-09-19T12:10:51;20.30;99.90
22813;DHT22;11573;51.334;3.244;2023-09-19T12:13:21;20.20;99.90
22813;DHT22;11573;51.334;3.244;2023-09-19T12:15:48;20.30;99.90
22813;DHT22;11573;51.334;3.244;2023-09-19T12:18:31;20.40;99.90
22813;DHT22;11573;51.334;3.244;2023-09-19T12:21:00;20.80;99.90
22813;DHT22;11573;51.334;3.244;2023-09-19T12:23:29;21.20;99.90
22813;DHT22;11573;51.334;3.244;2023-09-19T12:25:56;20.90;99.90
22813;DHT22;11573;51.334;3.244;2023-09-19T12:28:27;20.70;99.90
22813;DHT22;11573;51.334;3.244;2023-09-19T12:31:07;20.30;99.90
22813;DHT22;11573;51.334;3.244;2023-09-19T12:33:35;19.60;99.90
22813;DHT22;11573;51.334;3.244;2023-09-19T12:36:20;19.50;99.90
22813;DHT22;11573;51.334;3.244;2023-09-19T12:38:52;19.30;99.90
22813;DHT22;11573;51.334;3.244;2023-09-19T12:41:20;19.20;99.90
22813;DHT22;11573;51.334;3.244;2023-09-19T12:43:48;19.10;99.90
22813;DHT22;11573;51.334;3.244;2023-09-19T12:46:20;19.20;99.90
22813;DHT22;11573;51.334;3.244;2023-09-19T12:49:18;19.30;99.90
22813;DHT22;11573;51.334;3.244;2023-09-19T12:51:46;19.40;99.90
22813;DHT22;11573;51.334;3.244;2023-09-19T12:54:16;19.40;99.90
22813;DHT22;11573;51.334;3.244;2023-09-19T12:56:44;19.30;99.90
22813;DHT22;11573;51.334;3.244;2023-09-19T12:59:13;19.20;99.90
22813;DHT22;11573;51.334;3.244;2023-09-19T13:01:42;19.20;99.90
22813;DHT22;11573;51.334;3.244;2023-09-19T13:04:13;19.40;99.90
22813;DHT22;11573;51.334;3.244;2023-09-19T13:06:46;19.50;99.90
22813;DHT22;11573;51.334;3.244;2023-09-19T13:09:16;19.40;99.90
22813;DHT22;11573;51.334;3.244;2023-09-19T13:11:44;19.50;99.90
22813;DHT22;11573;51.334;3.244;2023-09-19T13:14:24;19.40;99.90
22813;DHT22;11573;51.334;3.244;2023-09-19T13:17:04;19.50;99.90
22813;DHT22;11573;51.334;3.244;2023-09-19T13:19:43;19.80;99.90
22813;DHT22;11573;51.334;3.244;2023-09-19T13:22:42;19.80;99.90
22813;DHT22;11573;51.334;3.244;2023-09-19T13:25:15;20.10;99.90
22813;DHT22;11573;51.334;3.244;2023-09-19T13:27:48;20.20;99.90
22813;DHT22;11573;51.334;3.244;2023-09-19T13:30:18;20.30;99.90
22813;DHT22;11573;51.334;3.244;2023-09-19T13:32:45;20.40;99.90
22813;DHT22;11573;51.334;3.244;2023-09-19T13:35:14;20.70;99.90
22813;DHT22;11573;51.334;3.244;2023-09-19T13:37:42;20.50;99.90
22813;DHT22;11573;51.334;3.244;2023-09-19T13:40:11;20.40;99.90
22813;DHT22;11573;51.334;3.244;2023-09-19T13:42:38;20.00;99.90
22813;DHT22;11573;51.334;3.244;2023-09-19T13:45:07;19.80;99.90
22813;DHT22;11573;51.334;3.244;2023-09-19T13:47:34;19.70;99.90
22813;DHT22;11573;51.334;3.244;2023-09-19T13:50:03;19.70;99.90
22813;DHT22;11573;51.334;3.244;2023-09-19T13:52:31;19.70;99.90
22813;DHT22;11573;51.334;3.244;2023-09-19T13:54:59;19.80;99.90
22813;DHT22;11573;51.334;3.244;2023-09-19T13:57:26;19.80;99.90
22813;DHT22;11573;51.334;3.244;2023-09-19T13:59:53;19.80;99.90
22813;DHT22;11573;51.334;3.244;2023-09-19T14:02:22;19.90;99.90
22813;DHT22;11573;51.334;3.244;2023-09-19T14:04:52;19.90;99.90
22813;DHT22;11573;51.334;3.244;2023-09-19T14:07:19;20.00;99.90
22813;DHT22;11573;51.334;3.244;2023-09-19T14:09:47;20.20;99.90
22813;DHT22;11573;51.334;3.244;2023-09-19T14:12:15;20.30;99.90
22813;DHT22;11573;51.334;3.244;2023-09-19T14:14:42;20.00;99.90
22813;DHT22;11573;51.334;3.244;2023-09-19T14:17:09;19.70;99.90
22813;DHT22;11573;51.334;3.244;2023-09-19T14:19:37;19.60;99.90
22813;DHT22;11573;51.334;3.244;2023-09-19T14:22:04;19.50;99.90
22813;DHT22;11573;51.334;3.244;2023-09-19T14:24:35;19.40;99.90
22813;DHT22;11573;51.334;3.244;2023-09-19T14:27:03;19.30;99.90
22813;DHT22;11573;51.334;3.244;2023-09-19T14:29:31;19.30;99.90
22813;DHT22;11573;51.334;3.244;2023-09-19T14:31:58;19.30;99.90
22813;DHT22;11573;51.334;3.244;2023-09-19T14:34:26;19.10;99.90
22813;DHT22;11573;51.334;3.244;2023-09-19T14:36:53;18.90;99.90
22813;DHT22;11573;51.334;3.244;2023-09-19T14:39:23;18.80;99.90
22813;DHT22;11573;51.334;3.244;2023-09-19T14:41:50;18.80;99.90
22813;DHT22;11573;51.334;3.244;2023-09-19T14:44:18;19.00;99.90
22813;DHT22;11573;51.334;3.244;2023-09-19T14:46:45;19.00;99.90
22813;DHT22;11573;51.334;3.244;2023-09-19T14:49:12;19.10;99.90
22813;DHT22;11573;51.334;3.244;2023-09-19T14:51:39;19.10;99.90
22813;DHT22;11573;51.334;3.244;2023-09-19T14:54:07;19.10;99.90
22813;DHT22;11573;51.334;3.244;2023-09-19T14:56:35;19.10;99.90
22813;DHT22;11573;51.334;3.244;2023-09-19T14:59:02;19.00;99.90
22813;DHT22;11573;51.334;3.244;2023-09-19T15:01:29;19.00;99.90
22813;DHT22;11573;51.334;3.244;2023-09-19T15:03:57;18.90;99.90
22813;DHT22;11573;51.334;3.244;2023-09-19T15:06:24;18.90;99.90
22813;DHT22;11573;51.334;3.244;2023-09-19T15:08:53;18.90;99.90
22813;DHT22;11573;51.334;3.244;2023-09-19T15:11:20;18.90;99.90
22813;DHT22;11573;51.334;3.244;2023-09-19T15:13:50;18.90;99.90
22813;DHT22;11573;51.334;3.244;2023-09-19T15:16:18;18.90;99.90
22813;DHT22;11573;51.334;3.244;2023-09-19T15:18:46;19.00;99.90
22813;DHT22;11573;51.334;3.244;2023-09-19T15:21:17;19.00;99.90
22813;DHT22;11573;51.334;3.244;2023-09-19T15:23:44;19.00;99.90
22813;DHT22;11573;51.334;3.244;2023-09-19T15:26:13;18.90;99.90
22813;DHT22;11573;51.334;3.244;2023-09-19T15:28:44;19.00;99.90
22813;DHT22;11573;51.334;3.244;2023-09-19T15:31:12;18.90;99.90
22813;DHT22;11573;51.334;3.244;2023-09-19T15:33:40;18.90;99.90
22813;DHT22;11573;51.334;3.244;2023-09-19T15:36:08;18.90;99.90
22813;DHT22;11573;51.334;3.244;2023-09-19T15:39:08;18.80;99.90
22813;DHT22;11573;51.334;3.244;2023-09-19T15:41:40;18.80;99.90
22813;DHT22;11573;51.334;3.244;2023-09-19T15:44:15;18.70;99.90
22813;DHT22;11573;51.334;3.244;2023-09-19T15:46:43;18.70;99.90
22813;DHT22;11573;51.334;3.244;2023-09-19T15:49:11;18.70;99.90
22813;DHT22;11573;51.334;3.244;2023-09-19T15:51:39;18.60;99.90
22813;DHT22;11573;51.334;3.244;2023-09-19T15:54:12;18.50;99.90
22813;DHT22;11573;51.334;3.244;2023-09-19T15:56:44;18.40;99.90
22813;DHT22;11573;51.334;3.244;2023-09-19T15:59:12;18.30;99.90
22813;DHT22;11573;51.334;3.244;2023-09-19T16:01:40;18.20;99.90
22813;DHT22;11573;51.334;3.244;2023-09-19T16:04:08;18.10;99.90
22813;DHT22;11573;51.334;3.244;2023-09-19T16:06:36;18.10;99.90
22813;DHT22;11573;51.334;3.244;2023-09-19T16:09:05;18.10;99.90
22813;DHT22;11573;51.334;3.244;2023-09-19T16:11:34;17.90;99.90
22813;DHT22;11573;51.334;3.244;2023-09-19T16:14:03;17.70;99.90
22813;DHT22;11573;51.334;3.244;2023-09-19T16:16:30;17.50;99.90
22813;DHT22;11573;51.334;3.244;2023-09-19T16:18:59;17.30;99.90
22813;DHT22;11573;51.334;3.244;2023-09-19T16:21:31;17.20;99.90
22813;DHT22;11573;51.334;3.244;2023-09-19T16:23:59;17.20;99.90
22813;DHT22;11573;51.334;3.244;2023-09-19T16:26:27;17.10;99.90
22813;DHT22;11573;51.334;3.244;2023-09-19T16:28:56;17.10;99.90